createdAt,value
2017-08-24T00:00:04.285Z,0
2017-08-24T00:01:13.821Z,0
2017-08-24T00:02:23.684Z,0
2017-08-24T00:03:33.213Z,0
2017-08-24T00:04:42.427Z,0
2017-08-24T00:05:51.982Z,0
2017-08-24T00:07:01.509Z,0
2017-08-24T00:08:10.729Z,0
2017-08-24T00:09:20.261Z,0
2017-08-24T00:10:30.264Z,0
2017-08-24T00:11:39.154Z,0
2017-08-24T00:12:48.680Z,0
2017-08-24T00:13:58.541Z,0
2017-08-24T00:15:08.074Z,0
2017-08-24T00:16:17.979Z,0
2017-08-24T00:17:27.515Z,0
2017-08-24T00:18:36.397Z,0
2017-08-24T00:19:46.259Z,0
2017-08-24T00:20:55.784Z,0
2017-08-24T00:22:05.610Z,0
2017-08-24T00:23:14.821Z,0
2017-08-24T00:24:24.355Z,0
2017-08-24T00:25:33.883Z,0
2017-08-24T00:26:43.411Z,0
2017-08-24T00:27:52.989Z,0
2017-08-24T00:29:02.844Z,0
2017-08-24T00:30:12.701Z,0
2017-08-24T00:31:22.552Z,0
2017-08-24T00:32:32.407Z,0
2017-08-24T00:33:42.189Z,0
2017-08-24T00:34:51.716Z,0
2017-08-24T00:36:01.566Z,0
2017-08-24T00:37:11.099Z,0
2017-08-24T00:38:19.990Z,0
2017-08-24T00:39:29.677Z,0
2017-08-24T00:40:39.531Z,0
2017-08-24T00:41:48.414Z,0
2017-08-24T00:42:57.945Z,0
2017-08-24T00:44:07.151Z,0
2017-08-24T00:45:16.507Z,0
2017-08-24T00:46:26.033Z,0
2017-08-24T00:47:35.236Z,0
2017-08-24T00:48:44.988Z,0
2017-08-24T00:49:54.569Z,0
2017-08-24T00:51:04.401Z,0
2017-08-24T00:52:14.252Z,0
2017-08-24T00:53:23.469Z,0
2017-08-24T00:54:33.645Z,0
2017-08-24T00:55:43.500Z,0
2017-08-24T00:56:53.345Z,0
2017-08-24T00:58:02.879Z,0
2017-08-24T00:59:12.409Z,0
2017-08-24T01:00:21.612Z,0
2017-08-24T01:01:31.788Z,0
2017-08-24T01:02:41.967Z,0
2017-08-24T01:03:51.502Z,0
2017-08-24T01:05:00.741Z,0
2017-08-24T01:06:09.950Z,0
2017-08-24T01:07:19.155Z,0
2017-08-24T01:08:28.670Z,0
2017-08-24T01:09:38.531Z,0
2017-08-24T01:10:48.076Z,0
2017-08-24T01:11:57.279Z,0
2017-08-24T01:13:07.132Z,0
2017-08-24T01:14:16.661Z,0
2017-08-24T01:15:25.545Z,0
2017-08-24T01:16:34.427Z,0
2017-08-24T01:17:43.637Z,0
2017-08-24T01:18:52.524Z,0
2017-08-24T01:20:01.732Z,0
2017-08-24T01:21:11.259Z,0
2017-08-24T01:22:20.788Z,0
2017-08-24T01:23:30.964Z,0
2017-08-24T01:24:39.845Z,0
2017-08-24T01:25:49.102Z,0
2017-08-24T01:26:58.979Z,0
2017-08-24T01:28:08.519Z,0
2017-08-24T01:29:17.736Z,0
2017-08-24T01:30:27.264Z,0
2017-08-24T01:31:36.521Z,0
2017-08-24T01:32:46.067Z,0
2017-08-24T01:33:55.595Z,0
2017-08-24T01:35:05.450Z,0
2017-08-24T01:36:14.981Z,0
2017-08-24T01:37:24.567Z,0
2017-08-24T01:38:34.093Z,0
2017-08-24T01:39:43.624Z,0
2017-08-24T01:40:53.188Z,0
2017-08-24T01:42:02.390Z,0
2017-08-24T01:43:12.299Z,0
2017-08-24T01:44:22.150Z,0
2017-08-24T01:45:31.684Z,0
2017-08-24T01:46:41.540Z,0
2017-08-24T01:47:51.390Z,0
2017-08-24T01:49:00.972Z,0
2017-08-24T01:50:10.178Z,0
2017-08-24T01:51:19.705Z,0
2017-08-24T01:52:28.909Z,0
2017-08-24T01:53:38.447Z,0
2017-08-24T01:54:47.804Z,0
2017-08-24T01:55:57.012Z,0
2017-08-24T01:57:06.547Z,0
2017-08-24T01:58:16.407Z,0
2017-08-24T01:59:25.620Z,0
2017-08-24T02:00:35.618Z,0
2017-08-24T02:01:45.478Z,0
2017-08-24T02:02:55.657Z,0
2017-08-24T02:04:05.512Z,0
2017-08-24T02:05:15.043Z,0
2017-08-24T02:06:25.528Z,0
2017-08-24T02:07:35.052Z,0
2017-08-24T02:08:44.586Z,0
2017-08-24T02:09:54.116Z,0
2017-08-24T02:11:02.993Z,0
2017-08-24T02:12:12.999Z,0
2017-08-24T02:13:22.883Z,0
2017-08-24T02:14:33.061Z,0
2017-08-24T02:15:41.973Z,0
2017-08-24T02:16:51.514Z,0
2017-08-24T02:18:00.870Z,0
2017-08-24T02:19:10.402Z,0
2017-08-24T02:20:20.258Z,0
2017-08-24T02:21:29.139Z,0
2017-08-24T02:22:38.667Z,0
2017-08-24T02:23:48.345Z,0
2017-08-24T02:24:57.553Z,0
2017-08-24T02:26:07.415Z,0
2017-08-24T02:27:16.949Z,0
2017-08-24T02:28:26.482Z,0
2017-08-24T02:29:35.737Z,0
2017-08-24T02:30:45.271Z,0
2017-08-24T02:31:54.478Z,0
2017-08-24T02:33:04.004Z,0
2017-08-24T02:34:13.864Z,0
2017-08-24T02:35:24.056Z,0
2017-08-24T02:36:34.240Z,0
2017-08-24T02:37:43.772Z,0
2017-08-24T02:38:52.655Z,0
2017-08-24T02:40:02.522Z,0
2017-08-24T02:41:12.857Z,0
2017-08-24T02:42:22.390Z,0
2017-08-24T02:43:32.253Z,0
2017-08-24T02:44:42.104Z,0
2017-08-24T02:45:51.966Z,0
2017-08-24T02:47:01.552Z,0
2017-08-24T02:48:10.768Z,0
2017-08-24T02:49:20.942Z,0
2017-08-24T02:50:30.469Z,0
2017-08-24T02:51:39.998Z,0
2017-08-24T02:52:49.677Z,0
2017-08-24T02:53:59.203Z,0
2017-08-24T02:55:09.076Z,0
2017-08-24T02:56:18.649Z,0
2017-08-24T02:57:27.850Z,0
2017-08-24T02:58:37.235Z,0
2017-08-24T02:59:46.780Z,0
2017-08-24T03:00:56.635Z,0
2017-08-24T03:02:06.164Z,0
2017-08-24T03:03:15.696Z,0
2017-08-24T03:04:24.633Z,0
2017-08-24T03:05:34.487Z,0
2017-08-24T03:06:44.337Z,0
2017-08-24T03:07:53.549Z,0
2017-08-24T03:09:03.404Z,0
2017-08-24T03:10:12.437Z,0
2017-08-24T03:11:21.642Z,0
2017-08-24T03:12:30.851Z,0
2017-08-24T03:13:40.703Z,0
2017-08-24T03:14:50.226Z,0
2017-08-24T03:16:00.079Z,0
2017-08-24T03:17:09.930Z,0
2017-08-24T03:18:19.134Z,0
2017-08-24T03:19:28.992Z,0
2017-08-24T03:20:38.209Z,0
2017-08-24T03:21:47.884Z,0
2017-08-24T03:22:57.734Z,0
2017-08-24T03:24:07.269Z,0
2017-08-24T03:25:16.155Z,0
2017-08-24T03:26:25.363Z,0
2017-08-24T03:27:34.940Z,0
2017-08-24T03:28:44.467Z,0
2017-08-24T03:29:53.673Z,0
2017-08-24T03:31:03.542Z,0
2017-08-24T03:32:13.402Z,0
2017-08-24T03:33:22.617Z,0
2017-08-24T03:34:31.505Z,0
2017-08-24T03:35:41.356Z,0
2017-08-24T03:36:50.883Z,0
2017-08-24T03:38:00.417Z,0
2017-08-24T03:39:10.345Z,0
2017-08-24T03:40:19.880Z,0
2017-08-24T03:41:29.084Z,0
2017-08-24T03:42:37.965Z,0
2017-08-24T03:43:47.822Z,0
2017-08-24T03:44:57.678Z,0
2017-08-24T03:46:06.893Z,0
2017-08-24T03:47:16.427Z,0
2017-08-24T03:48:25.957Z,0
2017-08-24T03:49:35.488Z,0
2017-08-24T03:50:44.745Z,0
2017-08-24T03:51:54.278Z,0
2017-08-24T03:53:04.132Z,0
2017-08-24T03:54:13.663Z,0
2017-08-24T03:55:22.547Z,0
2017-08-24T03:56:31.904Z,0
2017-08-24T03:57:41.437Z,0
2017-08-24T03:58:50.965Z,0
2017-08-24T03:59:59.846Z,0
2017-08-24T04:01:10.024Z,0
2017-08-24T04:02:19.230Z,0
2017-08-24T04:03:29.087Z,0
2017-08-24T04:04:38.613Z,0
2017-08-24T04:05:48.468Z,0
2017-08-24T04:06:58.319Z,0
2017-08-24T04:08:08.483Z,0
2017-08-24T04:09:17.690Z,0
2017-08-24T04:10:27.224Z,0
2017-08-24T04:11:36.434Z,0
2017-08-24T04:12:46.292Z,0
2017-08-24T04:13:55.597Z,0
2017-08-24T04:15:05.454Z,0
2017-08-24T04:16:14.988Z,0
2017-08-24T04:17:23.868Z,0
2017-08-24T04:18:33.394Z,0
2017-08-24T04:19:42.976Z,0
2017-08-24T04:20:51.856Z,0
2017-08-24T04:22:01.061Z,0
2017-08-24T04:23:10.917Z,0
2017-08-24T04:24:20.444Z,0
2017-08-24T04:25:29.704Z,0
2017-08-24T04:26:38.588Z,0
2017-08-24T04:27:48.438Z,0
2017-08-24T04:28:57.973Z,0
2017-08-24T04:30:07.529Z,0
2017-08-24T04:31:16.796Z,0
2017-08-24T04:32:25.676Z,0
2017-08-24T04:33:35.207Z,0
2017-08-24T04:34:44.743Z,0
2017-08-24T04:35:53.951Z,0
2017-08-24T04:37:03.308Z,0
2017-08-24T04:38:12.523Z,0
2017-08-24T04:39:22.373Z,0
2017-08-24T04:40:31.902Z,5
2017-08-24T04:41:42.085Z,5
2017-08-24T04:42:52.043Z,5
2017-08-24T04:44:01.273Z,5
2017-08-24T04:45:11.139Z,5
2017-08-24T04:46:20.346Z,5
2017-08-24T04:47:29.552Z,5
2017-08-24T04:48:39.605Z,5
2017-08-24T04:49:49.141Z,5
2017-08-24T04:50:58.020Z,5
2017-08-24T04:52:07.225Z,5
2017-08-24T04:53:16.437Z,10
2017-08-24T04:54:26.229Z,10
2017-08-24T04:55:35.760Z,10
2017-08-24T04:56:44.964Z,10
2017-08-24T04:57:54.166Z,15
2017-08-24T04:59:03.050Z,20
2017-08-24T05:00:12.340Z,25
2017-08-24T05:01:22.202Z,25
2017-08-24T05:02:31.732Z,30
2017-08-24T05:03:41.303Z,35
2017-08-24T05:04:50.541Z,40
2017-08-24T05:06:00.056Z,40
2017-08-24T05:07:09.913Z,45
2017-08-24T05:08:19.455Z,45
2017-08-24T05:09:29.310Z,50
2017-08-24T05:10:38.869Z,50
2017-08-24T05:11:48.452Z,50
2017-08-24T05:12:57.665Z,50
2017-08-24T05:14:07.521Z,45
2017-08-24T05:15:17.385Z,40
2017-08-24T05:16:27.561Z,35
2017-08-24T05:17:36.823Z,30
2017-08-24T05:18:46.359Z,30
2017-08-24T05:19:55.566Z,30
2017-08-24T05:21:04.804Z,30
2017-08-24T05:22:14.010Z,30
2017-08-24T05:23:24.022Z,30
2017-08-24T05:24:33.550Z,30
2017-08-24T05:25:43.078Z,40
2017-08-24T05:26:51.965Z,45
2017-08-24T05:28:00.850Z,40
2017-08-24T05:29:10.266Z,35
2017-08-24T05:30:19.472Z,35
2017-08-24T05:31:29.651Z,40
2017-08-24T05:32:39.510Z,40
2017-08-24T05:33:49.043Z,35
2017-08-24T05:34:58.729Z,35
2017-08-24T05:36:08.583Z,40
2017-08-24T05:37:18.113Z,45
2017-08-24T05:38:27.644Z,50
2017-08-24T05:39:37.498Z,45
2017-08-24T05:40:47.181Z,45
2017-08-24T05:41:56.715Z,40
2017-08-24T05:43:06.253Z,50
2017-08-24T05:44:15.783Z,50
2017-08-24T05:45:24.993Z,45
2017-08-24T05:46:34.909Z,40
2017-08-24T05:47:44.441Z,40
2017-08-24T05:48:53.655Z,45
2017-08-24T05:50:03.193Z,45
2017-08-24T05:51:13.048Z,40
2017-08-24T05:52:22.577Z,40
2017-08-24T05:53:32.108Z,35
2017-08-24T05:54:41.320Z,35
2017-08-24T05:55:50.530Z,40
2017-08-24T05:57:00.061Z,45
2017-08-24T05:58:09.691Z,50
2017-08-24T05:59:19.244Z,50
2017-08-24T06:00:28.784Z,50
2017-08-24T06:01:38.320Z,60
2017-08-24T06:02:48.175Z,70
2017-08-24T06:03:57.685Z,70
2017-08-24T06:05:06.899Z,70
2017-08-24T06:06:16.102Z,75
2017-08-24T06:07:25.969Z,85
2017-08-24T06:08:35.502Z,100
2017-08-24T06:09:45.186Z,120
2017-08-24T06:10:54.396Z,130
2017-08-24T06:12:04.571Z,125
2017-08-24T06:13:14.108Z,130
2017-08-24T06:14:23.965Z,150
2017-08-24T06:15:33.324Z,150
2017-08-24T06:16:42.534Z,130
2017-08-24T06:17:52.064Z,135
2017-08-24T06:19:01.595Z,165
2017-08-24T06:20:11.465Z,175
2017-08-24T06:21:21.103Z,180
2017-08-24T06:22:30.643Z,175
2017-08-24T06:23:39.855Z,175
2017-08-24T06:24:49.388Z,170
2017-08-24T06:25:58.920Z,195
2017-08-24T06:27:08.003Z,200
2017-08-24T06:28:17.214Z,175
2017-08-24T06:29:26.748Z,175
2017-08-24T06:30:35.635Z,170
2017-08-24T06:31:44.849Z,175
2017-08-24T06:32:55.006Z,180
2017-08-24T06:34:04.860Z,175
2017-08-24T06:35:14.405Z,180
2017-08-24T06:36:23.617Z,170
2017-08-24T06:37:32.827Z,150
2017-08-24T06:38:41.965Z,170
2017-08-24T06:39:51.177Z,145
2017-08-24T06:41:00.381Z,135
2017-08-24T06:42:09.587Z,125
2017-08-24T06:43:19.121Z,110
2017-08-24T06:44:29.077Z,90
2017-08-24T06:45:38.610Z,75
2017-08-24T06:46:48.474Z,80
2017-08-24T06:47:57.362Z,80
2017-08-24T06:49:07.223Z,75
2017-08-24T06:50:16.765Z,90
2017-08-24T06:51:26.003Z,90
2017-08-24T06:52:35.210Z,90
2017-08-24T06:53:45.388Z,90
2017-08-24T06:54:54.934Z,105
2017-08-24T06:56:04.940Z,110
2017-08-24T06:57:14.149Z,120
2017-08-24T06:58:23.686Z,135
2017-08-24T06:59:33.546Z,155
2017-08-24T07:00:42.752Z,145
2017-08-24T07:01:52.114Z,155
2017-08-24T07:03:01.972Z,175
2017-08-24T07:04:12.486Z,145
2017-08-24T07:05:22.024Z,170
2017-08-24T07:06:31.231Z,185
2017-08-24T07:07:40.604Z,185
2017-08-24T07:08:50.139Z,195
2017-08-24T07:09:59.673Z,145
2017-08-24T07:11:09.533Z,175
2017-08-24T07:12:19.388Z,195
2017-08-24T07:13:28.750Z,225
2017-08-24T07:14:37.636Z,275
2017-08-24T07:15:46.844Z,180
2017-08-24T07:16:56.056Z,140
2017-08-24T07:18:05.267Z,115
2017-08-24T07:19:15.272Z,85
2017-08-24T07:20:24.811Z,120
2017-08-24T07:21:34.021Z,125
2017-08-24T07:22:43.234Z,145
2017-08-24T07:23:52.767Z,155
2017-08-24T07:25:02.035Z,180
2017-08-24T07:26:11.894Z,220
2017-08-24T07:27:21.754Z,280
2017-08-24T07:28:31.945Z,265
2017-08-24T07:29:41.478Z,290
2017-08-24T07:30:51.323Z,255
2017-08-24T07:32:01.193Z,255
2017-08-24T07:33:11.055Z,230
2017-08-24T07:34:20.916Z,305
2017-08-24T07:35:29.807Z,270
2017-08-24T07:36:39.391Z,310
2017-08-24T07:37:49.255Z,370
2017-08-24T07:38:59.109Z,340
2017-08-24T07:40:09.015Z,360
2017-08-24T07:41:18.873Z,305
2017-08-24T07:42:29.134Z,330
2017-08-24T07:43:38.669Z,315
2017-08-24T07:44:48.211Z,340
2017-08-24T07:45:58.388Z,320
2017-08-24T07:47:08.246Z,275
2017-08-24T07:48:17.508Z,340
2017-08-24T07:49:27.054Z,300
2017-08-24T07:50:36.588Z,315
2017-08-24T07:51:46.130Z,265
2017-08-24T07:52:55.995Z,345
2017-08-24T07:54:05.676Z,395
2017-08-24T07:55:14.890Z,305
2017-08-24T07:56:24.421Z,310
2017-08-24T07:57:33.635Z,330
2017-08-24T07:58:42.848Z,380
2017-08-24T07:59:52.905Z,320
2017-08-24T08:01:02.114Z,305
2017-08-24T08:02:11.004Z,255
2017-08-24T08:03:20.225Z,270
2017-08-24T08:04:29.433Z,265
2017-08-24T08:05:39.441Z,310
2017-08-24T08:06:48.981Z,345
2017-08-24T08:07:58.836Z,365
2017-08-24T08:09:07.725Z,415
2017-08-24T08:10:17.938Z,400
2017-08-24T08:11:28.052Z,315
2017-08-24T08:12:37.270Z,430
2017-08-24T08:13:46.485Z,360
2017-08-24T08:14:55.701Z,325
2017-08-24T08:16:05.236Z,380
2017-08-24T08:17:14.600Z,380
2017-08-24T08:18:23.824Z,275
2017-08-24T08:19:33.362Z,305
2017-08-24T08:20:42.247Z,410
2017-08-24T08:21:51.461Z,435
2017-08-24T08:23:00.993Z,360
2017-08-24T08:24:10.208Z,370
2017-08-24T08:25:19.424Z,270
2017-08-24T08:26:28.316Z,240
2017-08-24T08:27:38.175Z,255
2017-08-24T08:28:47.167Z,270
2017-08-24T08:29:56.380Z,260
2017-08-24T08:31:05.265Z,240
2017-08-24T08:32:14.803Z,235
2017-08-24T08:33:24.340Z,265
2017-08-24T08:34:33.874Z,300
2017-08-24T08:35:43.461Z,340
2017-08-24T08:36:52.679Z,360
2017-08-24T08:38:02.215Z,305
2017-08-24T08:39:12.074Z,320
2017-08-24T08:40:22.079Z,360
2017-08-24T08:41:31.299Z,330
2017-08-24T08:42:41.154Z,355
2017-08-24T08:43:50.335Z,335
2017-08-24T08:44:59.186Z,280
2017-08-24T08:46:08.038Z,280
2017-08-24T08:47:16.889Z,295
2017-08-24T08:48:25.739Z,300
2017-08-24T08:49:34.595Z,285
2017-08-24T08:50:43.454Z,305
2017-08-24T08:51:52.793Z,340
2017-08-24T08:53:01.644Z,345
2017-08-24T08:54:10.508Z,300
2017-08-24T08:55:19.358Z,260
2017-08-24T08:56:28.209Z,290
2017-08-24T08:57:37.109Z,325
2017-08-24T08:58:45.958Z,390
2017-08-24T08:59:55.145Z,385
2017-08-24T09:01:03.996Z,360
2017-08-24T09:02:12.846Z,390
2017-08-24T09:03:21.846Z,365
2017-08-24T09:04:30.705Z,345
2017-08-24T09:05:39.556Z,370
2017-08-24T09:06:48.736Z,340
2017-08-24T09:07:57.587Z,345
2017-08-24T09:09:06.738Z,375
2017-08-24T09:10:15.588Z,370
2017-08-24T09:11:24.439Z,380
2017-08-24T09:12:33.293Z,330
2017-08-24T09:13:42.144Z,300
2017-08-24T09:14:51.145Z,285
2017-08-24T09:15:59.995Z,305
2017-08-24T09:17:08.846Z,325
2017-08-24T09:18:17.695Z,375
2017-08-24T09:19:26.554Z,340
2017-08-24T09:20:35.556Z,315
2017-08-24T09:21:44.740Z,350
2017-08-24T09:22:53.585Z,365
2017-08-24T09:24:02.773Z,355
2017-08-24T09:25:11.622Z,335
2017-08-24T09:26:20.627Z,385
2017-08-24T09:27:29.810Z,430
2017-08-24T09:28:38.667Z,400
2017-08-24T09:29:47.517Z,375
2017-08-24T09:30:56.371Z,420
2017-08-24T09:32:05.524Z,490
2017-08-24T09:33:14.376Z,485
2017-08-24T09:34:23.229Z,410
2017-08-24T09:35:32.081Z,400
2017-08-24T09:36:40.932Z,425
2017-08-24T09:37:49.882Z,355
2017-08-24T09:38:58.730Z,360
2017-08-24T09:40:07.579Z,420
2017-08-24T09:41:16.766Z,475
2017-08-24T09:42:25.617Z,450
2017-08-24T09:43:35.101Z,450
2017-08-24T09:44:43.953Z,410
2017-08-24T09:45:52.805Z,420
2017-08-24T09:47:01.995Z,405
2017-08-24T09:48:10.849Z,395
2017-08-24T09:49:19.851Z,405
2017-08-24T09:50:28.703Z,410
2017-08-24T09:51:37.886Z,440
2017-08-24T09:52:46.739Z,440
2017-08-24T09:53:55.594Z,460
2017-08-24T09:55:04.446Z,450
2017-08-24T09:56:13.306Z,490
2017-08-24T09:57:22.152Z,530
2017-08-24T09:58:31.338Z,425
2017-08-24T09:59:40.188Z,400
2017-08-24T10:00:49.191Z,430
2017-08-24T10:01:58.041Z,490
2017-08-24T10:03:06.891Z,515
2017-08-24T10:04:15.742Z,525
2017-08-24T10:05:24.595Z,510
2017-08-24T10:06:33.745Z,500
2017-08-24T10:07:42.598Z,495
2017-08-24T10:08:51.782Z,490
2017-08-24T10:10:00.631Z,470
2017-08-24T10:11:09.481Z,475
2017-08-24T10:12:18.440Z,490
2017-08-24T10:13:27.288Z,485
2017-08-24T10:14:36.135Z,480
2017-08-24T10:15:44.986Z,495
2017-08-24T10:16:53.840Z,500
2017-08-24T10:18:02.847Z,460
2017-08-24T10:19:12.038Z,430
2017-08-24T10:20:21.255Z,430
2017-08-24T10:21:30.108Z,395
2017-08-24T10:22:38.960Z,385
2017-08-24T10:23:48.154Z,400
2017-08-24T10:24:57.008Z,450
2017-08-24T10:26:05.862Z,430
2017-08-24T10:27:14.735Z,420
2017-08-24T10:28:23.588Z,460
2017-08-24T10:29:32.616Z,530
2017-08-24T10:30:41.473Z,605
2017-08-24T10:31:50.322Z,575
2017-08-24T10:32:59.175Z,535
2017-08-24T10:34:08.026Z,480
2017-08-24T10:35:17.029Z,385
2017-08-24T10:36:25.883Z,395
2017-08-24T10:37:35.070Z,405
2017-08-24T10:38:43.922Z,430
2017-08-24T10:39:52.774Z,475
2017-08-24T10:41:01.776Z,470
2017-08-24T10:42:10.629Z,485
2017-08-24T10:43:19.484Z,520
2017-08-24T10:44:28.334Z,500
2017-08-24T10:45:37.527Z,455
2017-08-24T10:46:46.778Z,445
2017-08-24T10:47:55.634Z,445
2017-08-24T10:49:04.819Z,515
2017-08-24T10:50:13.675Z,485
2017-08-24T10:51:22.529Z,480
2017-08-24T10:52:31.480Z,455
2017-08-24T10:53:40.333Z,500
2017-08-24T10:54:49.186Z,505
2017-08-24T10:55:58.039Z,445
2017-08-24T10:57:06.892Z,385
2017-08-24T10:58:15.895Z,425
2017-08-24T10:59:24.751Z,495
2017-08-24T11:00:33.603Z,490
2017-08-24T11:01:42.456Z,455
2017-08-24T11:02:51.308Z,460
2017-08-24T11:04:00.465Z,440
2017-08-24T11:05:09.319Z,340
2017-08-24T11:06:18.526Z,350
2017-08-24T11:07:27.377Z,355
2017-08-24T11:08:36.230Z,405
2017-08-24T11:09:45.233Z,470
2017-08-24T11:10:54.088Z,475
2017-08-24T11:12:02.943Z,465
2017-08-24T11:13:12.127Z,555
2017-08-24T11:14:20.981Z,630
2017-08-24T11:15:29.883Z,520
2017-08-24T11:16:38.734Z,410
2017-08-24T11:17:47.586Z,340
2017-08-24T11:18:56.443Z,345
2017-08-24T11:20:05.295Z,380
2017-08-24T11:21:14.577Z,405
2017-08-24T11:22:23.428Z,455
2017-08-24T11:23:32.280Z,545
2017-08-24T11:24:41.462Z,665
2017-08-24T11:25:50.651Z,730
2017-08-24T11:26:59.550Z,745
2017-08-24T11:28:08.404Z,685
2017-08-24T11:29:17.258Z,590
2017-08-24T11:30:26.109Z,620
2017-08-24T11:31:34.962Z,505
2017-08-24T11:32:43.964Z,420
2017-08-24T11:33:52.824Z,400
2017-08-24T11:35:01.679Z,360
2017-08-24T11:36:10.872Z,390
2017-08-24T11:37:19.724Z,450
2017-08-24T11:38:28.828Z,545
2017-08-24T11:39:37.681Z,620
2017-08-24T11:40:46.529Z,640
2017-08-24T11:41:55.381Z,635
2017-08-24T11:43:04.232Z,665
2017-08-24T11:44:13.233Z,670
2017-08-24T11:45:22.095Z,575
2017-08-24T11:46:30.938Z,475
2017-08-24T11:47:39.791Z,415
2017-08-24T11:48:48.640Z,360
2017-08-24T11:49:57.823Z,330
2017-08-24T11:51:06.681Z,335
2017-08-24T11:52:15.533Z,345
2017-08-24T11:53:24.385Z,365
2017-08-24T11:54:33.238Z,400
2017-08-24T11:55:42.140Z,420
2017-08-24T11:56:51.329Z,445
2017-08-24T11:58:00.181Z,425
2017-08-24T11:59:09.033Z,445
2017-08-24T12:00:17.887Z,485
2017-08-24T12:01:26.738Z,550
2017-08-24T12:02:35.591Z,625
2017-08-24T12:03:44.493Z,680
2017-08-24T12:04:53.344Z,700
2017-08-24T12:06:02.529Z,725
2017-08-24T12:07:11.866Z,775
2017-08-24T12:08:20.727Z,925
2017-08-24T12:09:29.578Z,830
2017-08-24T12:10:38.432Z,870
2017-08-24T12:11:47.617Z,1105
2017-08-24T12:12:56.621Z,1020
2017-08-24T12:14:05.474Z,740
2017-08-24T12:15:14.480Z,785
2017-08-24T12:16:23.334Z,890
2017-08-24T12:17:32.186Z,1260
2017-08-24T12:18:41.191Z,1460
2017-08-24T12:19:50.043Z,1790
2017-08-24T12:20:58.899Z,1760
2017-08-24T12:22:07.752Z,1330
2017-08-24T12:23:16.614Z,1630
2017-08-24T12:24:25.949Z,1900
2017-08-24T12:25:34.805Z,2350
2017-08-24T12:26:43.665Z,2285
2017-08-24T12:27:52.518Z,2060
2017-08-24T12:29:01.375Z,715
2017-08-24T12:30:10.380Z,655
2017-08-24T12:31:19.235Z,650
2017-08-24T12:32:28.091Z,600
2017-08-24T12:33:36.949Z,810
2017-08-24T12:34:45.806Z,420
2017-08-24T12:35:54.912Z,370
2017-08-24T12:37:03.770Z,420
2017-08-24T12:38:12.625Z,380
2017-08-24T12:39:21.478Z,425
2017-08-24T12:40:30.332Z,490
2017-08-24T12:41:39.285Z,520
2017-08-24T12:42:48.142Z,530
2017-08-24T12:43:56.995Z,530
2017-08-24T12:45:05.849Z,510
2017-08-24T12:46:14.711Z,515
2017-08-24T12:47:23.566Z,505
2017-08-24T12:48:32.421Z,495
2017-08-24T12:49:41.277Z,470
2017-08-24T12:50:50.131Z,460
2017-08-24T12:51:58.986Z,455
2017-08-24T12:53:07.992Z,490
2017-08-24T12:54:17.182Z,590
2017-08-24T12:55:26.038Z,570
2017-08-24T12:56:35.226Z,610
2017-08-24T12:57:44.079Z,820
2017-08-24T12:58:53.038Z,845
2017-08-24T13:00:01.893Z,790
2017-08-24T13:01:10.747Z,865
2017-08-24T13:02:19.604Z,1090
2017-08-24T13:03:28.470Z,790
2017-08-24T13:04:37.498Z,785
2017-08-24T13:05:46.354Z,625
2017-08-24T13:06:55.209Z,635
2017-08-24T13:08:04.059Z,720
2017-08-24T13:09:12.917Z,500
2017-08-24T13:10:22.201Z,425
2017-08-24T13:11:31.053Z,405
2017-08-24T13:12:39.909Z,430
2017-08-24T13:13:48.766Z,495
2017-08-24T13:14:57.624Z,600
2017-08-24T13:16:06.480Z,680
2017-08-24T13:17:15.671Z,710
2017-08-24T13:18:24.530Z,800
2017-08-24T13:19:33.388Z,800
2017-08-24T13:20:42.237Z,760
2017-08-24T13:21:51.240Z,875
2017-08-24T13:23:00.093Z,870
2017-08-24T13:24:08.948Z,785
2017-08-24T13:25:17.802Z,740
2017-08-24T13:26:26.662Z,720
2017-08-24T13:27:35.566Z,775
2017-08-24T13:28:44.422Z,785
2017-08-24T13:29:53.285Z,800
2017-08-24T13:31:02.139Z,1145
2017-08-24T13:32:11.329Z,1615
2017-08-24T13:33:20.339Z,710
2017-08-24T13:34:29.201Z,1000
2017-08-24T13:35:38.056Z,1050
2017-08-24T13:36:46.917Z,1035
2017-08-24T13:37:55.770Z,850
2017-08-24T13:39:04.876Z,875
2017-08-24T13:40:14.070Z,855
2017-08-24T13:41:22.927Z,760
2017-08-24T13:42:31.780Z,750
2017-08-24T13:43:40.634Z,1045
2017-08-24T13:44:49.541Z,1080
2017-08-24T13:45:58.398Z,880
2017-08-24T13:47:07.258Z,1670
2017-08-24T13:48:16.111Z,1705
2017-08-24T13:49:24.969Z,1630
2017-08-24T13:50:34.174Z,1205
2017-08-24T13:51:43.035Z,1140
2017-08-24T13:52:51.896Z,1510
2017-08-24T13:54:00.776Z,1195
2017-08-24T13:55:09.662Z,1825
2017-08-24T13:56:18.818Z,1410
2017-08-24T13:57:27.696Z,1395
2017-08-24T13:58:36.572Z,1525
2017-08-24T13:59:45.472Z,855
2017-08-24T14:00:54.343Z,1365
2017-08-24T14:02:03.371Z,1575
2017-08-24T14:03:12.594Z,995
2017-08-24T14:04:21.795Z,1830
2017-08-24T14:05:30.666Z,910
2017-08-24T14:06:39.525Z,1170
2017-08-24T14:07:48.765Z,1745
2017-08-24T14:08:57.623Z,1380
2017-08-24T14:10:06.823Z,1745
2017-08-24T14:11:15.678Z,825
2017-08-24T14:12:24.537Z,690
2017-08-24T14:13:33.547Z,1615
2017-08-24T14:14:42.416Z,595
2017-08-24T14:15:51.275Z,565
2017-08-24T14:17:00.134Z,560
2017-08-24T14:18:09.325Z,650
2017-08-24T14:19:18.566Z,740
2017-08-24T14:20:27.424Z,1350
2017-08-24T14:21:36.647Z,1560
2017-08-24T14:22:45.499Z,960
2017-08-24T14:23:54.357Z,885
2017-08-24T14:25:03.362Z,670
2017-08-24T14:26:12.473Z,655
2017-08-24T14:27:21.334Z,805
2017-08-24T14:28:30.194Z,975
2017-08-24T14:29:39.052Z,1870
2017-08-24T14:30:48.057Z,985
2017-08-24T14:31:56.914Z,1330
2017-08-24T14:33:05.772Z,2040
2017-08-24T14:34:14.631Z,1440
2017-08-24T14:35:23.823Z,2315
2017-08-24T14:36:32.734Z,2235
2017-08-24T14:37:41.593Z,1630
2017-08-24T14:38:50.452Z,1175
2017-08-24T14:39:59.310Z,1145
2017-08-24T14:41:08.507Z,1995
2017-08-24T14:42:17.478Z,2000
2017-08-24T14:43:26.318Z,1380
2017-08-24T14:44:35.178Z,2065
2017-08-24T14:45:44.039Z,1835
2017-08-24T14:46:53.232Z,1320
2017-08-24T14:48:02.142Z,1065
2017-08-24T14:49:11.004Z,1250
2017-08-24T14:50:19.866Z,1365
2017-08-24T14:51:28.728Z,1435
2017-08-24T14:52:37.587Z,1505
2017-08-24T14:53:46.447Z,1565
2017-08-24T14:54:55.309Z,925
2017-08-24T14:56:04.165Z,1350
2017-08-24T14:57:13.026Z,615
2017-08-24T14:58:21.897Z,500
2017-08-24T14:59:31.008Z,505
2017-08-24T15:00:39.867Z,580
2017-08-24T15:01:48.726Z,965
2017-08-24T15:02:57.585Z,1200
2017-08-24T15:04:06.443Z,570
2017-08-24T15:05:15.451Z,495
2017-08-24T15:06:24.306Z,515
2017-08-24T15:07:33.166Z,870
2017-08-24T15:08:42.026Z,765
2017-08-24T15:09:50.882Z,655
2017-08-24T15:10:59.890Z,560
2017-08-24T15:12:08.748Z,480
2017-08-24T15:13:17.603Z,405
2017-08-24T15:14:26.459Z,355
2017-08-24T15:15:35.313Z,310
2017-08-24T15:16:44.217Z,305
2017-08-24T15:17:53.076Z,275
2017-08-24T15:19:01.930Z,265
2017-08-24T15:20:10.783Z,260
2017-08-24T15:21:19.639Z,275
2017-08-24T15:22:28.545Z,295
2017-08-24T15:23:37.444Z,295
2017-08-24T15:24:46.320Z,275
2017-08-24T15:25:55.174Z,255
2017-08-24T15:27:04.026Z,265
2017-08-24T15:28:13.131Z,270
2017-08-24T15:29:21.991Z,270
2017-08-24T15:30:30.845Z,265
2017-08-24T15:31:39.699Z,300
2017-08-24T15:32:48.551Z,335
2017-08-24T15:33:57.454Z,335
2017-08-24T15:35:06.313Z,295
2017-08-24T15:36:15.163Z,235
2017-08-24T15:37:24.018Z,195
2017-08-24T15:38:32.871Z,175
2017-08-24T15:39:41.823Z,170
2017-08-24T15:40:50.675Z,175
2017-08-24T15:41:59.528Z,185
2017-08-24T15:43:08.411Z,200
2017-08-24T15:44:17.267Z,205
2017-08-24T15:45:26.269Z,210
2017-08-24T15:46:35.122Z,230
2017-08-24T15:47:43.980Z,265
2017-08-24T15:48:52.832Z,290
2017-08-24T15:50:01.696Z,305
2017-08-24T15:51:10.691Z,330
2017-08-24T15:52:19.545Z,350
2017-08-24T15:53:28.395Z,340
2017-08-24T15:54:37.259Z,350
2017-08-24T15:55:46.114Z,365
2017-08-24T15:56:54.967Z,430
2017-08-24T15:58:04.154Z,445
2017-08-24T15:59:13.008Z,460
2017-08-24T16:00:21.874Z,420
2017-08-24T16:01:30.726Z,380
2017-08-24T16:02:39.630Z,335
2017-08-24T16:03:48.817Z,315
2017-08-24T16:04:57.673Z,280
2017-08-24T16:06:06.526Z,260
2017-08-24T16:07:15.385Z,230
2017-08-24T16:08:24.238Z,200
2017-08-24T16:09:33.091Z,180
2017-08-24T16:10:41.950Z,190
2017-08-24T16:11:51.137Z,210
2017-08-24T16:12:59.993Z,215